Airfield :
LOGIN :

Register | Disclaimer

   EN    FR    IT 

 










Legend :    VFR   Marginal VFR   IFR   Intensive IFR   Very Intensive IFR
Visi :
Ceiling :
>= 8 km
>= 3000ft
5 to 8 km
1000 to 3000 ft
1500m to 5 km
500 to 1000 ft
800 to 1500m
200 to 500 ft
< 800m
< 200 ft
Symbols :   Thunderstorms  Fog  Heavy snow  Heavy precipitations  Wind > 20 kt
SIGMETs :     Misc.  Thunderstorms  Icing  Turbulence  Mountain Waves  Volcanic Ashes







- Airport Elevation : 794 ft


LKCV - Čáslav Air Base

CURRENT METAR :
  • 252000Z 28006KT 9999 FEW018 BKN025 OVC045 03/02 Q1018 NOSIG RMK BLU BLU

EXPIRED METARs :
  • 251934Z 28004KT 9999 SCT020 OVC035 03/02 Q1018 RERA RMK BLU
  • 251915Z 34004KT 9999 -RA SCT020 OVC028 03/02 Q1018 RMK BLU
  • 251900Z 29009KT 8000 SHRA SCT017 OVC025 03/01 Q1017 NOSIG RMK BLU BLU
  • 251837Z 24007KT 5000 SHRA SCT020 BKN055 03/02 Q1017 RMK WHT
  • 251800Z 19003KT 9999 FEW030 BKN050 03/00 Q1016 NOSIG RMK BLU BLU

TAF TAF LKCV
Valid from the 25 at 18:00 until the 26 at 18:00 UTC


251700Z 2518/2618 31012KT 9999 SCT020 BKN035
TEMPO 2518/2520 30018G30KT 6000 SHRASN SCT017TCU BKN030
PROB30
TEMPO 2518/2520 4000 TSRASN SCT015CB BKN025
No reported NOTAMs for that airfield.
1 SIGMET reported for the Praha FIR (LKAA) :
 
Severe turbulence
LKAA SIGMET 1 VALID 252040/252240 LKPW
LKAA PRAHA FIR SEV TURB FCST SE OF LINE N4848 E01556 - N4932 E01854 FL140/240 STNR NC=



MET'MAP, your aeronautical weather chart ! - Copyright ORBIFLY December 2007 - Disclaimer

ORBIFLY MET'MAP TEAM :

Programming & Development : Alexandra Zaïnal
Concept & Development : Baudouin d'Aumeries
Co-Development & Prog : Marc-Olivier Méhu
Technical & hardware support : Manuel Goepfert

Contact : metmap@orbifly.com




SOURCES & CREDITS :

   NOAA